Time;durP1;ratioP1;P1;durP2;ratioP2;P2;SDS_P1;SDS_P2;PMS_P1;PMS_P2;Temp;Humidity;BMP_temperature;BMP_pressure;BME280_temperature;BME280_humidity;BME280_pressure;Samples;Min_cycle;Max_cycle;Signal;HPM_P1;HPM_P2
2021/01/10 04:33:19;;;;;;;20.87;12.43;;;;;;;0.73;57.76;99397.13;6976087;23;20245;-83
2021/01/10 04:36:40;;;;;;;21.33;12.97;;;;;;;1.23;57.33;99420.22;6841344;28;20209;-83
2021/01/10 04:40:01;;;;;;;17.77;12.00;;;;;;;1.07;57.91;99411.88;6865807;28;20201;-82
2021/01/10 04:43:22;;;;;;;23.33;13.07;;;;;;;1.04;57.72;99376.78;6895468;28;20224;-83
2021/01/10 04:46:44;;;;;;;19.57;13.10;;;;;;;1.63;57.24;99412.28;6886410;28;20636;-83
2021/01/10 04:50:08;;;;;;;17.90;12.27;;;;;;;0.66;58.50;99427.78;6896981;28;20216;-83
2021/01/10 04:53:31;;;;;;;17.43;12.10;;;;;;;1.08;58.11;99405.59;6897469;28;20612;-83
2021/01/10 04:56:57;;;;;;;16.97;11.90;;;;;;;0.94;57.60;99297.09;6872438;28;20205;-82
2021/01/10 05:00:23;;;;;;;22.10;12.97;;;;;;;1.72;56.81;99399.00;6870243;28;20182;-83
2021/01/10 05:03:47;;;;;;;32.10;16.70;;;;;;;1.80;56.47;99407.16;6870398;28;20215;-82
2021/01/10 05:07:14;;;;;;;19.63;12.97;;;;;;;1.65;56.84;99435.09;6886182;28;20255;-82
2021/01/10 05:10:38;;;;;;;21.27;13.67;;;;;;;1.69;57.21;99404.63;6896424;28;20231;-83
2021/01/10 05:13:59;;;;;;;18.93;12.27;;;;;;;2.06;55.99;99397.69;6898134;28;20211;-82
2021/01/10 05:17:23;;;;;;;16.17;11.57;;;;;;;2.20;55.69;99417.75;6871542;28;20719;-82
2021/01/10 05:20:46;;;;;;;19.27;12.97;;;;;;;2.01;56.11;99396.44;6885742;28;20278;-82
2021/01/10 05:24:08;;;;;;;21.03;11.90;;;;;;;2.08;56.65;99424.16;6897895;28;20208;-82
2021/01/10 05:27:37;;;;;;;19.83;12.77;;;;;;;1.87;56.79;99420.75;6886757;28;20228;-81
2021/01/10 05:31:00;;;;;;;19.43;13.73;;;;;;;2.08;57.00;99427.66;6875548;28;20232;-82
2021/01/10 05:34:26;;;;;;;17.57;12.33;;;;;;;1.63;56.73;99388.34;6873622;28;20205;-83
2021/01/10 05:37:56;;;;;;;18.50;12.63;;;;;;;1.68;57.84;99426.84;6886762;28;20204;-83
2021/01/10 05:41:20;;;;;;;21.80;13.23;;;;;;;2.02;58.20;99419.41;6888478;28;20240;-83
2021/01/10 05:44:49;;;;;;;18.77;12.97;;;;;;;1.96;57.92;99427.91;6865628;28;20340;-83
2021/01/10 05:48:13;;;;;;;23.73;14.33;;;;;;;1.97;57.93;99417.16;6874346;28;20808;-82
2021/01/10 05:51:34;;;;;;;22.20;13.07;;;;;;;2.41;56.75;99403.34;6891575;28;20312;-82
2021/01/10 05:54:55;;;;;;;22.00;14.03;;;;;;;1.88;57.39;99423.28;6874482;28;20736;-83
2021/01/10 05:58:19;;;;;;;21.80;13.43;;;;;;;1.62;57.44;99435.38;6875925;28;20239;-83
2021/01/10 06:01:56;;;;;;;20.27;13.70;;;;;;;1.81;57.24;99416.81;6866489;28;20228;-83
2021/01/10 06:05:18;;;;;;;18.53;13.00;;;;;;;2.36;57.07;99434.84;6867446;28;20217;-83
2021/01/10 06:08:42;;;;;;;23.70;14.23;;;;;;;2.17;56.68;99432.16;6867797;28;20291;-83
2021/01/10 06:12:04;;;;;;;24.23;14.47;;;;;;;2.24;56.76;99425.31;6866947;28;20256;-82
2021/01/10 06:15:31;;;;;;;20.50;13.70;;;;;;;1.87;57.82;99436.69;6867286;28;20689;-83
2021/01/10 06:18:55;;;;;;;20.37;13.50;;;;;;;1.93;58.23;99436.16;6867177;28;20208;-83
2021/01/10 06:22:17;;;;;;;23.87;14.43;;;;;;;2.00;57.83;99422.19;6863939;28;20235;-83
2021/01/10 06:25:39;;;;;;;22.47;14.83;;;;;;;1.96;57.66;99350.81;6870318;28;20209;-82
2021/01/10 06:29:02;;;;;;;20.53;14.00;;;;;;;2.41;56.59;99429.94;6869374;28;20193;-82
2021/01/10 06:32:26;;;;;;;20.90;15.03;;;;;;;2.47;56.66;99434.72;6892995;28;20331;-82
2021/01/10 06:35:53;;;;;;;23.07;15.47;;;;;;;1.94;57.43;99436.03;6886268;28;20566;-82
2021/01/10 06:39:15;;;;;;;21.57;14.57;;;;;;;1.99;57.74;99415.19;6895273;28;20236;-82
2021/01/10 06:42:42;;;;;;;21.93;14.53;;;;;;;1.69;57.92;99369.22;6893743;28;20255;-82
2021/01/10 06:46:06;;;;;;;22.93;15.33;;;;;;;2.03;58.59;99394.47;6876346;28;20228;-82
2021/01/10 06:49:31;;;;;;;21.30;15.20;;;;;;;2.30;57.11;99421.28;6863472;28;20197;-82
2021/01/10 06:52:53;;;;;;;20.73;14.60;;;;;;;1.93;58.11;99415.72;6885559;28;20662;-82
2021/01/10 06:56:14;;;;;;;26.20;16.10;;;;;;;2.38;58.03;99432.91;6895000;28;20266;-82
2021/01/10 07:00:08;;;;;;;18.13;13.23;;;;;;;2.76;56.99;99432.91;6889867;28;20219;-83
2021/01/10 07:03:33;;;;;;;23.20;13.80;;;;;;;2.81;55.80;99430.66;6895267;28;20220;-82
2021/01/10 07:06:55;;;;;;;21.17;14.43;;;;;;;2.35;56.91;99403.03;6897529;28;20318;-82
2021/01/10 07:10:26;;;;;;;19.67;13.33;;;;;;;2.53;56.12;99423.50;6890203;28;20200;-82
2021/01/10 07:13:49;;;;;;;19.93;14.50;;;;;;;2.38;56.43;99392.13;6896954;28;20296;-82
2021/01/10 07:17:14;;;;;;;20.77;14.37;;;;;;;2.53;56.32;99434.16;6896159;28;20212;-83
2021/01/10 07:20:45;;;;;;;21.80;14.40;;;;;;;2.61;55.98;99415.66;6876782;28;20225;-82
2021/01/10 07:24:31;;;;;;;27.57;16.27;;;;;;;2.98;55.65;99437.06;6872148;28;20204;-83
2021/01/10 07:27:52;;;;;;;26.93;16.57;;;;;;;2.68;55.98;99435.44;6872540;28;20213;-82
2021/01/10 07:31:18;;;;;;;22.60;15.03;;;;;;;2.44;56.12;99432.34;6872031;28;20236;-82
2021/01/10 07:35:01;;;;;;;24.60;15.43;;;;;;;2.70;56.26;99437.94;6875040;28;20229;-82
2021/01/10 07:38:23;;;;;;;26.77;14.77;;;;;;;2.95;55.80;99440.03;6897721;28;20192;-84
2021/01/10 07:41:47;;;;;;;23.23;16.23;;;;;;;2.76;55.51;99443.53;6889763;28;20224;-86
2021/01/10 07:45:17;;;;;;;23.50;15.63;;;;;;;2.82;55.12;99428.81;6899092;28;20220;-83
2021/01/10 07:48:38;;;;;;;24.37;15.57;;;;;;;3.23;54.43;99455.97;6882707;28;20615;-82
2021/01/10 07:52:00;;;;;;;24.97;16.20;;;;;;;3.10;53.57;99414.63;6870290;28;20224;-81
2021/01/10 07:55:26;;;;;;;23.70;14.77;;;;;;;3.05;54.73;99443.50;6912029;28;20270;-81
2021/01/10 07:59:15;;;;;;;24.97;16.73;;;;;;;3.07;55.52;99447.72;6880110;28;20288;-81
2021/01/10 08:03:04;;;;;;;23.77;15.77;;;;;;;2.90;55.36;99461.75;6870992;28;20284;-80
2021/01/10 08:06:56;;;;;;;23.27;15.10;;;;;;;2.66;56.60;99461.31;6874588;28;20213;-81
2021/01/10 08:10:17;;;;;;;24.47;16.20;;;;;;;2.68;57.05;99448.75;6877203;28;20328;-81
2021/01/10 08:13:41;;;;;;;24.77;16.40;;;;;;;2.89;56.67;99462.72;6893573;28;20211;-82
2021/01/10 08:17:16;;;;;;;26.93;16.23;;;;;;;3.22;55.50;99438.31;6878706;28;20307;-82
2021/01/10 08:20:38;;;;;;;27.37;17.40;;;;;;;2.83;55.80;99386.06;6873803;28;20229;-83
2021/01/10 08:24:06;;;;;;;26.63;16.97;;;;;;;3.54;54.79;99460.09;6890352;28;20213;-82
2021/01/10 08:27:29;;;;;;;21.83;15.27;;;;;;;3.71;53.14;99450.50;6890939;28;20251;-82
2021/01/10 08:30:51;;;;;;;23.53;16.67;;;;;;;3.83;53.25;99460.00;6878716;28;20225;-81
2021/01/10 08:34:16;;;;;;;25.37;16.60;;;;;;;3.53;53.37;99462.88;6887511;28;20208;-81
2021/01/10 08:37:40;;;;;;;23.77;16.20;;;;;;;3.43;54.58;99472.75;6896940;28;20205;-82
2021/01/10 08:41:04;;;;;;;26.10;16.70;;;;;;;3.82;54.44;99463.63;6905678;28;20267;-82
2021/01/10 08:44:29;;;;;;;27.03;16.80;;;;;;;3.70;54.05;99440.81;6882098;28;20252;-82
2021/01/10 08:47:51;;;;;;;22.97;15.40;;;;;;;4.00;54.03;99460.03;6871835;28;20599;-82
2021/01/10 08:51:27;;;;;;;24.37;16.73;;;;;;;4.18;52.77;99449.44;6892677;28;20224;-83
2021/01/10 08:54:50;;;;;;;21.67;15.70;;;;;;;4.11;53.26;99462.53;6884180;28;20720;-83
2021/01/10 08:58:11;;;;;;;21.90;15.57;;;;;;;3.74;53.72;99455.53;6897433;28;20263;-83
2021/01/10 09:01:32;;;;;;;30.87;17.07;;;;;;;3.72;54.00;99436.19;6898756;28;20228;-84
2021/01/10 09:04:53;;;;;;;25.90;17.53;;;;;;;4.13;54.12;99443.69;6892944;28;20207;-82
2021/01/10 09:08:30;;;;;;;23.13;16.70;;;;;;;3.34;55.73;99446.97;6897846;28;20211;-84
2021/01/10 09:12:01;;;;;;;26.13;18.27;;;;;;;4.00;55.16;99464.53;6895396;28;20224;-86
2021/01/10 09:15:28;;;;;;;28.10;20.07;;;;;;;3.16;54.38;99313.66;6893810;28;20196;-84
2021/01/10 09:18:52;;;;;;;27.73;17.87;;;;;;;4.51;55.05;99459.47;6895926;28;20211;-81
2021/01/10 09:22:16;;;;;;;23.63;17.53;;;;;;;5.09;54.53;99453.50;6896151;28;20228;-83
2021/01/10 09:25:39;;;;;;;20.40;14.50;;;;;;;5.44;54.19;99463.28;6896402;28;20236;-84
2021/01/10 09:29:05;;;;;;;11.90;9.80;;;;;;;5.64;51.35;99451.34;6896102;28;20224;-86
2021/01/10 09:32:27;;;;;;;15.43;10.57;;;;;;;4.93;52.41;99453.38;6895229;28;20233;-82
2021/01/10 09:35:49;;;;;;;15.70;12.10;;;;;;;5.68;53.27;99450.91;6894214;28;20213;-86
2021/01/10 09:39:10;;;;;;;16.07;12.23;;;;;;;6.08;50.86;99405.59;6846029;28;20241;-83
2021/01/10 09:42:42;;;;;;;24.07;16.20;;;;;;;5.70;50.44;99423.97;6895971;28;20225;-87
2021/01/10 09:46:03;;;;;;;13.33;10.63;;;;;;;5.60;50.50;99402.69;6894939;28;20231;-82
2021/01/10 09:49:29;;;;;;;21.07;14.00;;;;;;;6.29;49.69;99448.88;6898509;28;20205;-82
2021/01/10 09:52:52;;;;;;;12.13;9.20;;;;;;;5.70;49.90;99448.91;6877020;28;20233;-83
2021/01/10 09:56:15;;;;;;;18.77;13.03;;;;;;;6.07;49.68;99437.91;6870982;28;20598;-82
2021/01/10 09:59:42;;;;;;;10.53;9.33;;;;;;;6.94;46.97;99437.25;6872663;28;20213;-84
2021/01/10 10:03:09;;;;;;;11.23;8.67;;;;;;;6.60;47.61;99449.94;6872542;28;20241;-83
2021/01/10 10:06:48;;;;;;;11.70;9.23;;;;;;;5.45;48.67;99398.94;6871974;28;20235;-78
2021/01/10 10:10:21;;;;;;;11.03;8.83;;;;;;;5.18;48.11;99425.84;6902414;28;20190;-84
2021/01/10 10:13:42;;;;;;;9.33;7.90;;;;;;;5.76;48.38;99434.88;6889464;28;20207;-85
2021/01/10 10:17:04;;;;;;;11.53;8.67;;;;;;;6.68;47.82;99411.63;6883743;28;20232;-84
2021/01/10 10:20:25;;;;;;;11.97;9.07;;;;;;;6.92;47.02;99428.56;6870048;28;20813;-83
2021/01/10 10:23:47;;;;;;;14.67;11.30;;;;;;;5.91;47.16;99432.47;6883936;28;20554;-84
2021/01/10 10:27:08;;;;;;;9.70;8.03;;;;;;;6.52;47.56;99422.28;6899278;28;20281;-84
2021/01/10 10:30:29;;;;;;;11.20;8.60;;;;;;;7.06;45.69;99357.31;6888970;28;20216;-85
2021/01/10 10:33:55;;;;;;;10.50;8.30;;;;;;;6.41;46.07;99380.59;6867828;28;20196;-84
2021/01/10 10:37:17;;;;;;;12.07;8.47;;;;;;;6.45;47.49;99335.56;6891942;28;20702;-85
2021/01/10 10:40:38;;;;;;;10.90;8.73;;;;;;;7.57;44.84;99403.34;6896654;28;20269;-85
2021/01/10 10:43:59;;;;;;;9.47;8.27;;;;;;;7.27;45.83;99306.69;6901070;28;20204;-86
2021/01/10 10:47:20;;;;;;;10.90;8.07;;;;;;;7.55;45.43;99396.47;6886320;28;20233;-85
2021/01/10 10:50:42;;;;;;;10.93;8.33;;;;;;;7.46;44.07;99330.41;6883703;28;20230;-84
2021/01/10 10:54:04;;;;;;;10.27;8.77;;;;;;;8.10;43.17;99406.19;6874106;28;20213;-84
2021/01/10 10:57:25;;;;;;;11.03;8.60;;;;;;;7.50;45.15;99413.09;6890374;28;20198;-85
2021/01/10 11:00:46;;;;;;;10.27;8.13;;;;;;;7.39;45.23;99408.09;6897632;28;20235;-85
2021/01/10 11:04:08;;;;;;;8.00;7.20;;;;;;;7.92;43.97;99402.06;6873430;28;20215;-84
2021/01/10 11:07:33;;;;;;;9.40;7.40;;;;;;;8.39;42.77;99371.47;6873399;28;20228;-85
2021/01/10 11:10:54;;;;;;;10.20;8.40;;;;;;;7.94;43.65;99386.59;6872554;28;20697;-84
2021/01/10 11:14:16;;;;;;;8.50;7.37;;;;;;;7.70;44.78;99375.97;6885367;28;20840;-86
2021/01/10 11:17:38;;;;;;;9.10;7.37;;;;;;;8.00;42.60;99393.94;6900373;28;20203;-84
2021/01/10 11:20:59;;;;;;;9.17;7.67;;;;;;;5.19;50.17;99379.41;6882140;28;20233;-84
2021/01/10 11:24:21;;;;;;;9.20;7.90;;;;;;;6.36;48.26;99385.59;6896717;28;20206;-84
2021/01/10 11:27:42;;;;;;;9.20;7.23;;;;;;;7.30;44.93;99368.84;6872638;28;20698;-84
2021/01/10 11:31:04;;;;;;;9.30;7.57;;;;;;;8.13;42.90;99364.72;6872541;28;20265;-83
2021/01/10 11:34:25;;;;;;;10.43;8.77;;;;;;;6.81;46.64;99335.09;6881776;28;20345;-86
2021/01/10 11:37:47;;;;;;;10.27;8.17;;;;;;;7.69;43.90;99367.09;6884257;28;20207;-84
2021/01/10 11:41:11;;;;;;;9.77;7.53;;;;;;;8.08;42.87;99357.16;6890875;28;20288;-85
2021/01/10 11:44:32;;;;;;;8.73;7.83;;;;;;;7.85;43.28;99348.22;6873771;28;20212;-83
2021/01/10 11:47:53;;;;;;;9.73;7.87;;;;;;;8.25;43.75;99348.03;6873408;28;20235;-85
2021/01/10 11:51:16;;;;;;;9.70;7.20;;;;;;;9.23;41.78;99337.16;6870694;28;20226;-84
2021/01/10 11:54:37;;;;;;;9.10;7.53;;;;;;;8.45;43.52;99322.41;6871672;28;20214;-84
2021/01/10 11:57:59;;;;;;;11.07;8.33;;;;;;;8.42;42.23;99338.84;6872736;28;20672;-84
2021/01/10 12:01:21;;;;;;;8.13;7.23;;;;;;;7.86;44.42;99330.25;6871746;28;20233;-84
2021/01/10 12:04:42;;;;;;;10.13;7.53;;;;;;;6.77;45.47;99355.19;6871833;28;20222;-84
2021/01/10 12:08:03;;;;;;;9.10;7.20;;;;;;;6.59;46.04;99327.72;6871758;28;20285;-84
2021/01/10 12:11:26;;;;;;;11.80;8.90;;;;;;;6.13;48.34;99322.97;6872822;28;20232;-85
2021/01/10 12:14:48;;;;;;;10.57;8.03;;;;;;;7.17;46.98;99320.28;6884529;28;20202;-88
2021/01/10 12:18:09;;;;;;;8.50;7.60;;;;;;;7.12;45.52;99324.47;6893948;28;20201;-87
2021/01/10 12:21:30;;;;;;;8.60;7.67;;;;;;;7.25;45.56;99328.31;6894434;28;20225;-86
2021/01/10 12:24:52;;;;;;;11.10;8.13;;;;;;;6.33;47.45;99315.47;6895541;28;20659;-87
2021/01/10 12:28:14;;;;;;;9.80;8.10;;;;;;;6.75;47.37;99330.41;6896535;28;20297;-87
2021/01/10 12:31:37;;;;;;;10.17;7.90;;;;;;;7.90;44.42;99329.72;6913155;28;20264;-87
2021/01/10 12:34:59;;;;;;;10.33;7.77;;;;;;;6.71;45.83;99312.16;6923790;28;20264;-85
2021/01/10 12:38:20;;;;;;;9.60;8.07;;;;;;;6.86;46.16;99321.19;6922813;28;20205;-86
2021/01/10 12:41:42;;;;;;;10.23;8.07;;;;;;;5.87;48.57;99330.28;6921564;28;20233;-83
2021/01/10 12:45:05;;;;;;;8.30;7.17;;;;;;;5.38;49.34;99323.06;6922898;28;20608;-84
2021/01/10 12:48:27;;;;;;;9.60;7.20;;;;;;;5.94;48.23;99282.28;6920818;28;20707;-85
2021/01/10 12:51:49;;;;;;;9.10;7.77;;;;;;;5.83;48.19;99294.16;6895458;28;20762;-85
2021/01/10 12:55:11;;;;;;;9.40;7.17;;;;;;;6.83;46.81;99326.88;6882161;28;20204;-85
2021/01/10 12:58:32;;;;;;;8.90;7.00;;;;;;;6.05;47.24;99325.66;6891109;28;20272;-85
2021/01/10 13:01:54;;;;;;;7.93;7.13;;;;;;;6.42;46.83;99309.97;6866971;28;20229;-86
2021/01/10 13:05:16;;;;;;;8.87;7.57;;;;;;;5.83;47.88;99290.66;6867391;28;20206;-85
2021/01/10 13:08:37;;;;;;;9.60;8.23;;;;;;;6.46;47.07;99295.25;6885398;28;20724;-86
2021/01/10 13:11:59;;;;;;;10.80;7.57;;;;;;;6.20;47.44;99297.22;6870592;28;20222;-86
2021/01/10 13:15:20;;;;;;;10.63;7.90;;;;;;;5.47;48.56;99329.25;6894789;28;20190;-86
2021/01/10 13:18:41;;;;;;;9.67;8.37;;;;;;;5.84;48.61;99305.69;6893903;28;20206;-85
2021/01/10 13:22:04;;;;;;;10.50;8.60;;;;;;;5.37;48.88;99299.97;6893016;28;20224;-86
2021/01/10 13:25:25;;;;;;;9.93;7.50;;;;;;;5.73;49.06;99336.22;6894233;28;20206;-84
2021/01/10 13:28:46;;;;;;;10.53;7.83;;;;;;;6.26;47.86;99326.00;6895448;28;20226;-85
2021/01/10 13:32:07;;;;;;;8.30;7.27;;;;;;;6.99;46.85;99337.56;6894357;28;20581;-86
2021/01/10 13:35:29;;;;;;;8.67;7.77;;;;;;;6.77;45.36;99253.34;6893900;28;20202;-86
2021/01/10 13:38:51;;;;;;;9.97;7.93;;;;;;;7.20;46.06;99335.19;6894606;28;20206;-85
2021/01/10 13:42:12;;;;;;;9.40;7.90;;;;;;;6.95;46.10;99334.41;6888081;28;20253;-87
2021/01/10 13:45:33;;;;;;;8.77;7.87;;;;;;;6.86;45.90;99322.03;6876282;28;20975;-87
2021/01/10 13:48:54;;;;;;;11.50;8.50;;;;;;;7.26;45.77;99313.88;6894234;28;20217;-86
2021/01/10 13:52:16;;;;;;;12.10;8.47;;;;;;;7.32;46.34;99328.47;6871217;28;20226;-85
2021/01/10 13:55:39;;;;;;;9.33;7.67;;;;;;;7.84;44.34;99303.59;6871040;28;20202;-86
2021/01/10 13:59:00;;;;;;;8.93;7.40;;;;;;;6.20;45.56;99326.66;6884364;28;20221;-84
2021/01/10 14:02:21;;;;;;;10.13;7.47;;;;;;;6.28;45.86;99326.69;6894410;28;20760;-85
2021/01/10 14:05:42;;;;;;;9.03;7.17;;;;;;;6.85;45.18;99306.94;6882621;28;20230;-84
2021/01/10 14:09:04;;;;;;;9.90;6.87;;;;;;;7.03;45.05;99326.34;6867914;28;20237;-87
2021/01/10 14:12:26;;;;;;;9.10;7.53;;;;;;;6.55;45.02;99261.25;6867131;28;20237;-86
2021/01/10 14:15:47;;;;;;;10.83;7.30;;;;;;;7.38;44.74;99323.22;6888187;28;20209;-87
2021/01/10 14:19:09;;;;;;;11.10;8.57;;;;;;;6.95;44.61;99322.84;6900651;28;20218;-84
2021/01/10 14:22:32;;;;;;;9.73;7.97;;;;;;;6.67;45.44;99276.81;6901136;28;20602;-86
2021/01/10 14:25:53;;;;;;;11.83;8.63;;;;;;;7.25;44.70;99330.16;6902573;28;20227;-86
2021/01/10 14:29:16;;;;;;;10.03;8.00;;;;;;;7.25;44.89;99320.25;6883369;28;20222;-86
2021/01/10 14:32:38;;;;;;;12.60;7.90;;;;;;;7.22;45.04;99322.44;6882782;28;20244;-85
2021/01/10 14:35:59;;;;;;;9.53;7.83;;;;;;;6.74;45.06;99293.03;6886678;28;20475;-86
2021/01/10 14:39:21;;;;;;;9.53;8.07;;;;;;;6.95;45.09;99321.00;6908076;28;20194;-86
2021/01/10 14:42:42;;;;;;;18.87;11.50;;;;;;;6.83;45.79;99313.50;6918310;28;20743;-84
2021/01/10 14:46:04;;;;;;;11.47;9.33;;;;;;;6.38;45.67;99339.94;6902394;28;20234;-85
2021/01/10 14:49:25;;;;;;;8.77;7.47;;;;;;;6.55;45.80;99325.56;6898232;28;20212;-85
2021/01/10 14:52:47;;;;;;;10.57;7.80;;;;;;;6.65;45.10;99312.81;6897884;28;20615;-87
2021/01/10 14:56:11;;;;;;;10.67;8.50;;;;;;;5.55;47.42;99340.00;6899984;28;20205;-84
2021/01/10 14:59:32;;;;;;;9.73;7.90;;;;;;;5.66;48.09;99339.72;6899716;28;20205;-87
2021/01/10 15:02:54;;;;;;;10.03;8.23;;;;;;;5.28;48.86;99342.84;6899039;28;20621;-85
2021/01/10 15:06:16;;;;;;;12.63;9.10;;;;;;;5.34;49.20;99340.41;6900784;28;20314;-85
2021/01/10 15:09:37;;;;;;;12.50;9.67;;;;;;;4.86;50.08;99342.78;6899073;28;20615;-85
2021/01/10 15:12:58;;;;;;;10.90;9.40;;;;;;;5.36;49.89;99351.75;6899024;28;20229;-85
2021/01/10 15:16:20;;;;;;;10.37;8.73;;;;;;;5.19;50.00;99347.31;6899767;28;20212;-87
2021/01/10 15:19:42;;;;;;;13.80;10.33;;;;;;;5.15;50.27;99348.66;6885363;28;20202;-85
2021/01/10 15:23:03;;;;;;;11.67;9.37;;;;;;;5.07;48.93;99302.34;6872704;28;20234;-85
2021/01/10 15:26:25;;;;;;;9.93;8.93;;;;;;;5.24;49.15;99355.72;6872318;28;20219;-88
2021/01/10 15:29:47;;;;;;;11.53;9.23;;;;;;;5.53;48.86;99360.69;6874916;28;20205;-86
2021/01/10 15:33:08;;;;;;;12.67;8.87;;;;;;;5.83;47.08;99368.25;6880719;28;20237;-84
2021/01/10 15:36:30;;;;;;;11.17;9.37;;;;;;;5.26;48.14;99369.75;6891924;28;20538;-83
2021/01/10 15:39:52;;;;;;;12.20;9.30;;;;;;;5.31;48.23;99372.78;6871410;28;20202;-84
2021/01/10 15:43:13;;;;;;;13.13;9.73;;;;;;;4.93;48.57;99378.56;6881570;28;20222;-87
2021/01/10 15:46:34;;;;;;;13.77;9.23;;;;;;;4.65;49.04;99346.78;6898287;28;20654;-86
2021/01/10 15:49:55;;;;;;;13.07;10.20;;;;;;;4.91;48.80;99379.69;6898991;28;20203;-83
2021/01/10 15:53:17;;;;;;;12.17;10.03;;;;;;;5.39;47.88;99372.00;6900504;28;20229;-83
2021/01/10 15:56:39;;;;;;;12.83;9.50;;;;;;;5.11;47.73;99339.25;6891123;28;20609;-87
2021/01/10 16:00:00;;;;;;;12.27;9.07;;;;;;;4.71;48.62;99311.44;6872788;28;20205;-85
2021/01/10 16:03:21;;;;;;;12.13;9.43;;;;;;;5.26;48.52;99391.13;6872947;28;20225;-85
2021/01/10 16:06:42;;;;;;;13.17;9.53;;;;;;;4.89;49.46;99355.81;6873219;28;20236;-83
2021/01/10 16:10:05;;;;;;;17.20;10.97;;;;;;;5.46;47.93;99381.91;6872171;28;20225;-84
2021/01/10 16:13:27;;;;;;;13.27;10.50;;;;;;;5.68;47.46;99392.06;6888049;28;20234;-83
2021/01/10 16:16:48;;;;;;;13.93;10.37;;;;;;;5.35;48.46;99392.88;6873349;28;20640;-83
2021/01/10 16:20:12;;;;;;;13.83;10.67;;;;;;;4.88;48.98;99382.66;6884176;28;20724;-83
2021/01/10 16:23:33;;;;;;;13.20;11.03;;;;;;;4.83;49.14;99380.47;6874179;28;20233;-83
2021/01/10 16:26:55;;;;;;;18.27;13.63;;;;;;;5.17;48.98;99407.28;6872626;28;20280;-83
2021/01/10 16:30:17;;;;;;;24.80;16.77;;;;;;;5.19;48.27;99376.72;6871276;28;20200;-85
2021/01/10 16:33:39;;;;;;;14.53;11.13;;;;;;;4.45;49.61;99361.28;6872570;28;20197;-83
2021/01/10 16:37:00;;;;;;;16.33;12.30;;;;;;;4.79;48.97;99386.28;6872891;28;20215;-85
2021/01/10 16:40:21;;;;;;;16.77;11.93;;;;;;;4.42;50.39;99385.63;6871443;28;20198;-83
2021/01/10 16:43:45;;;;;;;16.07;11.33;;;;;;;4.30;50.96;99405.53;6901822;28;20234;-82
2021/01/10 16:47:06;;;;;;;17.80;11.97;;;;;;;3.86;52.13;99412.53;6898622;28;20213;-82
2021/01/10 16:50:28;;;;;;;14.83;11.27;;;;;;;3.63;52.41;99367.72;6898149;28;20268;-84
2021/01/10 16:53:49;;;;;;;22.10;14.77;;;;;;;4.75;50.30;99411.63;6897674;28;20210;-82
2021/01/10 16:57:10;;;;;;;21.47;15.60;;;;;;;4.64;50.11;99380.66;6876748;28;20224;-83
2021/01/10 17:00:32;;;;;;;16.70;12.63;;;;;;;4.84;49.89;99395.50;6891710;28;20256;-83
2021/01/10 17:03:53;;;;;;;19.03;13.20;;;;;;;4.65;49.56;99370.81;6900978;28;20282;-82
2021/01/10 17:07:15;;;;;;;21.73;14.60;;;;;;;4.58;49.78;99367.06;6907617;28;20224;-83
2021/01/10 17:10:36;;;;;;;25.97;16.53;;;;;;;4.93;49.99;99418.63;6908429;28;20224;-82
2021/01/10 17:13:58;;;;;;;45.03;29.90;;;;;;;4.76;49.89;99383.91;6870847;28;20559;-83
2021/01/10 17:17:20;;;;;;;26.97;16.37;;;;;;;4.74;50.06;99393.91;6871347;28;20200;-82
2021/01/10 17:20:41;;;;;;;31.10;20.23;;;;;;;4.21;51.27;99412.59;6869704;28;20239;-82
2021/01/10 17:24:02;;;;;;;46.67;24.87;;;;;;;4.34;51.55;99418.41;6869758;28;20213;-82
2021/01/10 17:27:23;;;;;;;25.83;16.60;;;;;;;3.98;52.37;99418.50;6869688;28;20260;-84
2021/01/10 17:30:45;;;;;;;24.57;15.37;;;;;;;3.64;52.99;99399.56;6890825;28;20651;-82
2021/01/10 17:34:07;;;;;;;28.27;17.53;;;;;;;3.71;53.28;99395.34;6897166;28;20212;-83
2021/01/10 17:37:28;;;;;;;43.93;22.57;;;;;;;3.22;53.32;99330.88;6897281;28;20217;-82
2021/01/10 17:40:49;;;;;;;51.27;27.87;;;;;;;2.45;54.38;99273.50;6895944;28;20227;-83
2021/01/10 17:44:10;;;;;;;40.63;25.07;;;;;;;3.38;54.61;99424.38;6896524;28;20259;-82
2021/01/10 17:47:32;;;;;;;38.57;23.97;;;;;;;3.56;53.87;99420.81;6872876;28;20285;-82
2021/01/10 17:50:55;;;;;;;42.63;22.57;;;;;;;3.70;53.73;99417.66;6870578;28;20225;-82
2021/01/10 17:54:16;;;;;;;32.83;20.17;;;;;;;3.07;53.49;99386.44;6871692;28;20201;-81
2021/01/10 17:57:38;;;;;;;28.30;17.93;;;;;;;3.18;54.80;99426.25;6871147;28;20209;-82
2021/01/10 18:00:59;;;;;;;27.47;17.03;;;;;;;3.25;54.59;99414.03;6869488;28;20229;-80
2021/01/10 18:04:21;;;;;;;24.73;16.07;;;;;;;3.13;55.17;99417.00;6887722;28;20208;-81
2021/01/10 18:07:43;;;;;;;26.60;16.37;;;;;;;2.82;54.36;99405.69;6897831;28;20236;-81
2021/01/10 18:11:04;;;;;;;27.60;18.37;;;;;;;3.48;54.60;99427.84;6896794;28;20229;-83
2021/01/10 18:14:26;;;;;;;30.63;18.17;;;;;;;3.55;54.02;99410.28;6896918;28;20208;-82
2021/01/10 18:17:47;;;;;;;25.40;17.17;;;;;;;3.56;53.63;99399.50;6898108;28;20679;-82
2021/01/10 18:21:12;;;;;;;28.60;15.73;;;;;;;3.47;52.59;99412.81;6877861;28;20235;-82
2021/01/10 18:24:34;;;;;;;29.77;16.30;;;;;;;2.85;54.17;99444.53;6870278;28;20216;-83
2021/01/10 18:27:55;;;;;;;27.47;16.33;;;;;;;2.80;54.58;99441.44;6872425;28;20257;-82
2021/01/10 18:31:16;;;;;;;22.90;15.93;;;;;;;2.79;55.10;99440.59;6869113;28;20297;-81
2021/01/10 18:34:37;;;;;;;28.27;16.67;;;;;;;2.61;55.15;99417.50;6869127;28;20215;-83
2021/01/10 18:37:58;;;;;;;22.23;16.33;;;;;;;2.73;55.19;99419.03;6869232;28;20653;-83
2021/01/10 18:41:21;;;;;;;26.63;16.43;;;;;;;2.94;54.41;99438.34;6890280;28;20237;-83
2021/01/10 18:44:42;;;;;;;28.67;18.23;;;;;;;2.69;54.72;99444.25;6896958;28;20732;-81
2021/01/10 18:48:05;;;;;;;26.47;17.27;;;;;;;2.95;54.31;99434.72;6888326;28;20701;-81
2021/01/10 18:51:28;;;;;;;26.43;16.77;;;;;;;2.98;53.90;99439.75;6870564;28;20221;-81
2021/01/10 18:54:49;;;;;;;25.87;16.33;;;;;;;2.04;54.56;99423.59;6871749;28;20259;-82
2021/01/10 18:58:11;;;;;;;24.70;16.00;;;;;;;1.89;56.02;99440.06;6876484;28;20279;-83
2021/01/10 19:01:32;;;;;;;25.07;17.60;;;;;;;1.71;56.45;99417.78;6888662;28;20234;-82
2021/01/10 19:04:54;;;;;;;34.37;22.43;;;;;;;2.09;56.60;99463.06;6927915;28;20242;-84
2021/01/10 19:08:15;;;;;;;26.60;18.93;;;;;;;2.17;56.12;99471.19;6873664;28;20229;-82
2021/01/10 19:11:36;;;;;;;23.50;16.47;;;;;;;2.11;54.70;99403.44;6875334;28;20235;-83
2021/01/10 19:14:58;;;;;;;26.20;17.40;;;;;;;2.26;54.95;99441.97;6878684;28;20228;-81
2021/01/10 19:18:20;;;;;;;24.53;15.93;;;;;;;2.21;54.41;99430.91;6889478;28;20200;-83
2021/01/10 19:21:41;;;;;;;25.63;16.57;;;;;;;1.69;55.44;99399.31;6900055;28;20286;-83
2021/01/10 19:25:03;;;;;;;28.30;17.33;;;;;;;1.99;55.11;99467.50;6893630;28;20201;-82
2021/01/10 19:28:24;;;;;;;24.80;17.10;;;;;;;1.93;55.90;99447.63;6874027;28;20319;-82
2021/01/10 19:31:46;;;;;;;26.17;15.63;;;;;;;1.63;55.65;99426.41;6873093;28;20229;-81
2021/01/10 19:35:08;;;;;;;25.77;17.23;;;;;;;1.88;56.23;99457.84;6898543;28;20211;-83
2021/01/10 19:38:30;;;;;;;23.53;16.40;;;;;;;2.02;55.44;99428.19;6871999;28;20678;-80
2021/01/10 19:41:51;;;;;;;22.00;15.40;;;;;;;2.00;54.50;99456.75;6871938;28;20624;-83
2021/01/10 19:45:13;;;;;;;22.77;16.17;;;;;;;1.79;54.46;99458.66;6871544;28;20204;-82
2021/01/10 19:48:35;;;;;;;27.37;16.60;;;;;;;1.97;54.64;99467.69;6872545;28;20236;-81
2021/01/10 19:51:57;;;;;;;21.97;14.63;;;;;;;1.81;54.81;99462.00;6871939;28;20236;-84
2021/01/10 19:55:18;;;;;;;22.00;14.40;;;;;;;1.92;54.85;99463.72;6873091;28;20624;-83
2021/01/10 19:58:39;;;;;;;20.47;14.30;;;;;;;1.97;54.63;99446.41;6872438;28;20208;-83
2021/01/10 20:02:01;;;;;;;20.53;13.67;;;;;;;2.08;54.85;99456.91;6871908;28;20367;-82
2021/01/10 20:05:23;;;;;;;22.87;14.70;;;;;;;2.11;54.35;99461.97;6872441;28;20201;-82
2021/01/10 20:08:46;;;;;;;20.97;14.57;;;;;;;2.05;53.94;99429.75;6894856;28;20228;-81
2021/01/10 20:12:07;;;;;;;24.67;15.50;;;;;;;2.25;53.93;99468.72;6902372;28;20584;-81
2021/01/10 20:15:29;;;;;;;23.73;16.10;;;;;;;1.48;56.23;99456.97;6898180;28;20284;-83
2021/01/10 20:18:55;;;;;;;21.97;16.13;;;;;;;1.12;56.73;99449.50;6899018;28;20205;-81
2021/01/10 20:22:17;;;;;;;27.20;17.10;;;;;;;1.20;57.62;99472.75;6880328;28;20592;-81